sensor_id;sensor_type;location;lat;lon;timestamp;temperature;humidity
26224;DHT22;14820;48.682;8.890;2023-08-08T00:00:17;13.00;99.90
26224;DHT22;14820;48.682;8.890;2023-08-08T00:02:43;13.00;99.90
26224;DHT22;14820;48.682;8.890;2023-08-08T00:05:09;13.00;99.90
26224;DHT22;14820;48.682;8.890;2023-08-08T00:07:35;13.00;99.90
26224;DHT22;14820;48.682;8.890;2023-08-08T00:10:02;13.00;99.90
26224;DHT22;14820;48.682;8.890;2023-08-08T00:12:29;13.10;99.90
26224;DHT22;14820;48.682;8.890;2023-08-08T00:14:54;13.00;99.90
26224;DHT22;14820;48.682;8.890;2023-08-08T00:17:20;13.10;99.90
26224;DHT22;14820;48.682;8.890;2023-08-08T00:19:45;13.00;99.90
26224;DHT22;14820;48.682;8.890;2023-08-08T00:22:11;13.10;99.90
26224;DHT22;14820;48.682;8.890;2023-08-08T00:24:37;13.10;99.90
26224;DHT22;14820;48.682;8.890;2023-08-08T00:27:02;13.10;99.90
26224;DHT22;14820;48.682;8.890;2023-08-08T00:29:28;13.00;99.90
26224;DHT22;14820;48.682;8.890;2023-08-08T00:31:54;13.10;99.90
26224;DHT22;14820;48.682;8.890;2023-08-08T00:34:21;13.10;99.90
26224;DHT22;14820;48.682;8.890;2023-08-08T00:36:46;13.10;99.90
26224;DHT22;14820;48.682;8.890;2023-08-08T00:39:12;13.10;99.90
26224;DHT22;14820;48.682;8.890;2023-08-08T00:41:37;13.10;99.90
26224;DHT22;14820;48.682;8.890;2023-08-08T00:44:03;13.10;99.90
26224;DHT22;14820;48.682;8.890;2023-08-08T00:46:29;13.10;99.90
26224;DHT22;14820;48.682;8.890;2023-08-08T00:48:55;13.10;99.90
26224;DHT22;14820;48.682;8.890;2023-08-08T00:51:21;13.10;99.90
26224;DHT22;14820;48.682;8.890;2023-08-08T00:53:48;13.00;99.90
26224;DHT22;14820;48.682;8.890;2023-08-08T00:56:15;13.00;99.90
26224;DHT22;14820;48.682;8.890;2023-08-08T00:58:42;13.00;99.90
26224;DHT22;14820;48.682;8.890;2023-08-08T01:01:11;13.00;99.90
26224;DHT22;14820;48.682;8.890;2023-08-08T01:03:36;13.00;99.90
26224;DHT22;14820;48.682;8.890;2023-08-08T01:08:44;13.00;99.90
26224;DHT22;14820;48.682;8.890;2023-08-08T01:11:12;13.00;99.90
26224;DHT22;14820;48.682;8.890;2023-08-08T01:13:39;13.00;99.90
26224;DHT22;14820;48.682;8.890;2023-08-08T01:16:05;13.00;99.90
26224;DHT22;14820;48.682;8.890;2023-08-08T01:18:32;13.00;99.90
26224;DHT22;14820;48.682;8.890;2023-08-08T01:20:59;13.00;99.90
26224;DHT22;14820;48.682;8.890;2023-08-08T01:23:33;13.00;99.90
26224;DHT22;14820;48.682;8.890;2023-08-08T01:26:00;13.00;99.90
26224;DHT22;14820;48.682;8.890;2023-08-08T01:28:26;13.00;99.90
26224;DHT22;14820;48.682;8.890;2023-08-08T01:30:52;13.00;99.90
26224;DHT22;14820;48.682;8.890;2023-08-08T01:33:19;13.00;99.90
26224;DHT22;14820;48.682;8.890;2023-08-08T01:35:53;12.90;99.90
26224;DHT22;14820;48.682;8.890;2023-08-08T01:38:38;12.90;99.90
26224;DHT22;14820;48.682;8.890;2023-08-08T01:41:06;12.90;99.90
26224;DHT22;14820;48.682;8.890;2023-08-08T01:43:33;13.00;99.90
26224;DHT22;14820;48.682;8.890;2023-08-08T01:46:00;12.90;99.90
26224;DHT22;14820;48.682;8.890;2023-08-08T01:48:27;12.90;99.90
26224;DHT22;14820;48.682;8.890;2023-08-08T01:50:53;12.90;99.90
26224;DHT22;14820;48.682;8.890;2023-08-08T01:53:19;12.80;99.90
26224;DHT22;14820;48.682;8.890;2023-08-08T01:55:45;12.80;99.90
26224;DHT22;14820;48.682;8.890;2023-08-08T01:58:10;12.80;99.90
26224;DHT22;14820;48.682;8.890;2023-08-08T02:00:36;12.70;99.90
26224;DHT22;14820;48.682;8.890;2023-08-08T02:03:03;12.70;99.90
26224;DHT22;14820;48.682;8.890;2023-08-08T02:05:28;12.70;99.90
26224;DHT22;14820;48.682;8.890;2023-08-08T02:07:54;12.70;99.90
26224;DHT22;14820;48.682;8.890;2023-08-08T02:10:20;12.70;99.90
26224;DHT22;14820;48.682;8.890;2023-08-08T02:12:45;12.70;99.90
26224;DHT22;14820;48.682;8.890;2023-08-08T02:15:11;12.70;99.90
26224;DHT22;14820;48.682;8.890;2023-08-08T02:17:38;12.80;99.90
26224;DHT22;14820;48.682;8.890;2023-08-08T02:20:05;12.70;99.90
26224;DHT22;14820;48.682;8.890;2023-08-08T02:22:31;12.80;99.90
26224;DHT22;14820;48.682;8.890;2023-08-08T02:24:56;12.70;99.90
26224;DHT22;14820;48.682;8.890;2023-08-08T02:27:22;12.70;99.90
26224;DHT22;14820;48.682;8.890;2023-08-08T02:29:47;12.70;99.90
26224;DHT22;14820;48.682;8.890;2023-08-08T02:32:13;12.60;99.90
26224;DHT22;14820;48.682;8.890;2023-08-08T02:34:39;12.60;99.90
26224;DHT22;14820;48.682;8.890;2023-08-08T02:37:04;12.70;99.90
26224;DHT22;14820;48.682;8.890;2023-08-08T02:39:30;12.60;99.90
26224;DHT22;14820;48.682;8.890;2023-08-08T02:41:56;12.60;99.90
26224;DHT22;14820;48.682;8.890;2023-08-08T02:44:21;12.60;99.90
26224;DHT22;14820;48.682;8.890;2023-08-08T02:46:48;12.60;99.90
26224;DHT22;14820;48.682;8.890;2023-08-08T02:49:14;12.60;99.90
26224;DHT22;14820;48.682;8.890;2023-08-08T02:51:40;12.60;99.90
26224;DHT22;14820;48.682;8.890;2023-08-08T02:54:05;12.50;99.90
26224;DHT22;14820;48.682;8.890;2023-08-08T02:56:31;12.50;99.90
26224;DHT22;14820;48.682;8.890;2023-08-08T02:58:57;12.50;99.90
26224;DHT22;14820;48.682;8.890;2023-08-08T03:01:23;12.50;99.90
26224;DHT22;14820;48.682;8.890;2023-08-08T03:03:49;12.60;99.90
26224;DHT22;14820;48.682;8.890;2023-08-08T03:06:15;12.60;99.90
26224;DHT22;14820;48.682;8.890;2023-08-08T03:08:41;12.60;99.90
26224;DHT22;14820;48.682;8.890;2023-08-08T03:11:06;12.70;99.90
26224;DHT22;14820;48.682;8.890;2023-08-08T03:13:32;12.70;99.90
26224;DHT22;14820;48.682;8.890;2023-08-08T03:15:58;12.70;99.90
26224;DHT22;14820;48.682;8.890;2023-08-08T03:18:23;12.70;99.90
26224;DHT22;14820;48.682;8.890;2023-08-08T03:20:51;12.70;99.90
26224;DHT22;14820;48.682;8.890;2023-08-08T03:23:17;12.80;99.90
26224;DHT22;14820;48.682;8.890;2023-08-08T03:25:43;12.70;99.90
26224;DHT22;14820;48.682;8.890;2023-08-08T03:28:08;12.70;99.90
26224;DHT22;14820;48.682;8.890;2023-08-08T03:30:36;12.80;99.90
26224;DHT22;14820;48.682;8.890;2023-08-08T03:33:03;12.70;99.90
26224;DHT22;14820;48.682;8.890;2023-08-08T03:35:29;12.70;99.90
26224;DHT22;14820;48.682;8.890;2023-08-08T03:37:54;12.80;99.90
26224;DHT22;14820;48.682;8.890;2023-08-08T03:40:20;12.80;99.90
26224;DHT22;14820;48.682;8.890;2023-08-08T03:42:46;12.80;99.90
26224;DHT22;14820;48.682;8.890;2023-08-08T03:45:11;12.80;99.90
26224;DHT22;14820;48.682;8.890;2023-08-08T03:47:37;12.80;99.90
26224;DHT22;14820;48.682;8.890;2023-08-08T03:50:03;12.90;99.90
26224;DHT22;14820;48.682;8.890;2023-08-08T03:52:30;12.80;99.90
26224;DHT22;14820;48.682;8.890;2023-08-08T03:54:55;12.90;99.90
26224;DHT22;14820;48.682;8.890;2023-08-08T03:57:21;12.80;99.90
26224;DHT22;14820;48.682;8.890;2023-08-08T03:59:47;12.90;99.90
26224;DHT22;14820;48.682;8.890;2023-08-08T04:02:12;12.80;99.90
26224;DHT22;14820;48.682;8.890;2023-08-08T04:04:38;12.90;99.90
26224;DHT22;14820;48.682;8.890;2023-08-08T04:07:04;12.80;99.90
26224;DHT22;14820;48.682;8.890;2023-08-08T04:09:30;12.80;99.90
26224;DHT22;14820;48.682;8.890;2023-08-08T04:11:56;12.80;99.90
26224;DHT22;14820;48.682;8.890;2023-08-08T04:14:22;12.80;99.90
26224;DHT22;14820;48.682;8.890;2023-08-08T04:16:47;12.80;99.90
26224;DHT22;14820;48.682;8.890;2023-08-08T04:19:13;12.80;99.90
26224;DHT22;14820;48.682;8.890;2023-08-08T04:21:39;12.80;99.90
26224;DHT22;14820;48.682;8.890;2023-08-08T04:24:05;12.70;99.90
26224;DHT22;14820;48.682;8.890;2023-08-08T04:26:33;12.70;99.90
26224;DHT22;14820;48.682;8.890;2023-08-08T04:28:59;12.60;99.90
26224;DHT22;14820;48.682;8.890;2023-08-08T04:31:25;12.60;99.90
26224;DHT22;14820;48.682;8.890;2023-08-08T04:33:51;12.60;99.90
26224;DHT22;14820;48.682;8.890;2023-08-08T04:36:17;12.50;99.90
26224;DHT22;14820;48.682;8.890;2023-08-08T04:38:43;12.50;99.90
26224;DHT22;14820;48.682;8.890;2023-08-08T04:41:09;12.50;99.90
26224;DHT22;14820;48.682;8.890;2023-08-08T04:43:34;12.50;99.90
26224;DHT22;14820;48.682;8.890;2023-08-08T04:46:00;12.60;99.90
26224;DHT22;14820;48.682;8.890;2023-08-08T04:48:26;12.60;99.90
26224;DHT22;14820;48.682;8.890;2023-08-08T04:50:51;12.70;99.90
26224;DHT22;14820;48.682;8.890;2023-08-08T04:53:17;12.60;99.90
26224;DHT22;14820;48.682;8.890;2023-08-08T04:55:43;12.60;99.90
26224;DHT22;14820;48.682;8.890;2023-08-08T04:58:08;12.60;99.90
26224;DHT22;14820;48.682;8.890;2023-08-08T05:00:34;12.60;99.90
26224;DHT22;14820;48.682;8.890;2023-08-08T05:03:00;12.60;99.90
26224;DHT22;14820;48.682;8.890;2023-08-08T05:05:26;12.60;99.90
26224;DHT22;14820;48.682;8.890;2023-08-08T05:07:52;12.60;99.90
26224;DHT22;14820;48.682;8.890;2023-08-08T05:10:18;12.60;99.90
26224;DHT22;14820;48.682;8.890;2023-08-08T05:12:44;12.60;99.90
26224;DHT22;14820;48.682;8.890;2023-08-08T05:15:09;12.60;99.90
26224;DHT22;14820;48.682;8.890;2023-08-08T05:17:35;12.60;99.90
26224;DHT22;14820;48.682;8.890;2023-08-08T05:20:01;12.60;99.90
26224;DHT22;14820;48.682;8.890;2023-08-08T05:22:26;12.70;99.90
26224;DHT22;14820;48.682;8.890;2023-08-08T05:24:52;12.70;99.90
26224;DHT22;14820;48.682;8.890;2023-08-08T05:27:17;12.70;99.90
26224;DHT22;14820;48.682;8.890;2023-08-08T05:29:43;12.70;99.90
26224;DHT22;14820;48.682;8.890;2023-08-08T05:32:09;12.80;99.90
26224;DHT22;14820;48.682;8.890;2023-08-08T05:34:34;12.80;99.90
26224;DHT22;14820;48.682;8.890;2023-08-08T05:37:00;12.90;99.90
26224;DHT22;14820;48.682;8.890;2023-08-08T05:39:26;12.90;99.90
26224;DHT22;14820;48.682;8.890;2023-08-08T05:41:52;13.00;99.90
26224;DHT22;14820;48.682;8.890;2023-08-08T05:44:18;13.00;99.90
26224;DHT22;14820;48.682;8.890;2023-08-08T05:46:43;13.10;99.90
26224;DHT22;14820;48.682;8.890;2023-08-08T05:49:09;13.10;99.90
26224;DHT22;14820;48.682;8.890;2023-08-08T05:51:34;13.20;99.90
26224;DHT22;14820;48.682;8.890;2023-08-08T05:54:00;13.20;99.90
26224;DHT22;14820;48.682;8.890;2023-08-08T05:56:34;13.30;99.90
26224;DHT22;14820;48.682;8.890;2023-08-08T05:59:00;13.40;99.90
26224;DHT22;14820;48.682;8.890;2023-08-08T06:01:26;13.40;99.90
26224;DHT22;14820;48.682;8.890;2023-08-08T06:03:51;13.50;99.90
26224;DHT22;14820;48.682;8.890;2023-08-08T06:06:18;13.50;99.90
26224;DHT22;14820;48.682;8.890;2023-08-08T06:08:44;13.70;99.90
26224;DHT22;14820;48.682;8.890;2023-08-08T06:11:10;13.70;99.90
26224;DHT22;14820;48.682;8.890;2023-08-08T06:13:36;13.80;99.90
26224;DHT22;14820;48.682;8.890;2023-08-08T06:16:02;13.90;99.90
26224;DHT22;14820;48.682;8.890;2023-08-08T06:18:32;13.90;99.90
26224;DHT22;14820;48.682;8.890;2023-08-08T06:20:58;14.00;99.90
26224;DHT22;14820;48.682;8.890;2023-08-08T06:23:23;14.10;99.90
26224;DHT22;14820;48.682;8.890;2023-08-08T06:25:49;14.20;99.90
26224;DHT22;14820;48.682;8.890;2023-08-08T06:28:14;14.30;99.90
26224;DHT22;14820;48.682;8.890;2023-08-08T06:30:40;14.40;99.90
26224;DHT22;14820;48.682;8.890;2023-08-08T06:33:06;14.40;99.90
26224;DHT22;14820;48.682;8.890;2023-08-08T06:35:31;14.50;99.90
26224;DHT22;14820;48.682;8.890;2023-08-08T06:37:57;14.70;99.90
26224;DHT22;14820;48.682;8.890;2023-08-08T06:40:23;14.70;99.90
26224;DHT22;14820;48.682;8.890;2023-08-08T06:42:49;14.80;99.90
26224;DHT22;14820;48.682;8.890;2023-08-08T06:45:15;14.70;99.90
26224;DHT22;14820;48.682;8.890;2023-08-08T06:47:40;15.00;99.90
26224;DHT22;14820;48.682;8.890;2023-08-08T06:50:07;15.00;99.90
26224;DHT22;14820;48.682;8.890;2023-08-08T06:52:32;15.10;99.90
26224;DHT22;14820;48.682;8.890;2023-08-08T06:54:58;15.20;99.90
26224;DHT22;14820;48.682;8.890;2023-08-08T06:57:24;15.20;99.90
26224;DHT22;14820;48.682;8.890;2023-08-08T06:59:49;15.20;99.90
26224;DHT22;14820;48.682;8.890;2023-08-08T07:02:19;15.30;99.90
26224;DHT22;14820;48.682;8.890;2023-08-08T07:04:45;15.30;99.90
26224;DHT22;14820;48.682;8.890;2023-08-08T07:07:10;15.40;99.90
26224;DHT22;14820;48.682;8.890;2023-08-08T07:09:36;15.40;99.90
26224;DHT22;14820;48.682;8.890;2023-08-08T07:12:03;15.50;99.90
26224;DHT22;14820;48.682;8.890;2023-08-08T07:14:29;15.70;99.90
26224;DHT22;14820;48.682;8.890;2023-08-08T07:16:55;15.60;99.90
26224;DHT22;14820;48.682;8.890;2023-08-08T07:21:47;15.70;99.90
26224;DHT22;14820;48.682;8.890;2023-08-08T07:26:39;15.80;99.90
26224;DHT22;14820;48.682;8.890;2023-08-08T07:29:05;15.80;99.90
26224;DHT22;14820;48.682;8.890;2023-08-08T07:31:33;15.90;99.90
26224;DHT22;14820;48.682;8.890;2023-08-08T07:33:59;15.90;99.90
26224;DHT22;14820;48.682;8.890;2023-08-08T07:36:25;16.00;99.90
26224;DHT22;14820;48.682;8.890;2023-08-08T07:38:50;16.00;99.90
26224;DHT22;14820;48.682;8.890;2023-08-08T07:41:16;16.10;99.90
26224;DHT22;14820;48.682;8.890;2023-08-08T07:43:43;16.20;99.90
26224;DHT22;14820;48.682;8.890;2023-08-08T07:46:09;16.30;99.90
26224;DHT22;14820;48.682;8.890;2023-08-08T07:48:35;16.40;99.90
26224;DHT22;14820;48.682;8.890;2023-08-08T07:51:00;16.40;99.90
26224;DHT22;14820;48.682;8.890;2023-08-08T07:53:26;16.50;99.90
26224;DHT22;14820;48.682;8.890;2023-08-08T07:55:52;16.60;99.90
26224;DHT22;14820;48.682;8.890;2023-08-08T07:58:17;16.70;99.90
26224;DHT22;14820;48.682;8.890;2023-08-08T08:00:43;16.70;99.90
26224;DHT22;14820;48.682;8.890;2023-08-08T08:03:09;16.80;99.90
26224;DHT22;14820;48.682;8.890;2023-08-08T08:05:35;16.80;99.90
26224;DHT22;14820;48.682;8.890;2023-08-08T08:08:01;16.80;99.90
26224;DHT22;14820;48.682;8.890;2023-08-08T08:10:28;16.80;99.90
26224;DHT22;14820;48.682;8.890;2023-08-08T08:12:54;16.60;99.90
26224;DHT22;14820;48.682;8.890;2023-08-08T08:15:24;16.60;99.90
26224;DHT22;14820;48.682;8.890;2023-08-08T08:17:50;16.50;99.90
26224;DHT22;14820;48.682;8.890;2023-08-08T08:20:15;16.60;99.90
26224;DHT22;14820;48.682;8.890;2023-08-08T08:22:41;16.60;99.90
26224;DHT22;14820;48.682;8.890;2023-08-08T08:25:07;16.60;99.90
26224;DHT22;14820;48.682;8.890;2023-08-08T08:27:35;16.60;99.90
26224;DHT22;14820;48.682;8.890;2023-08-08T08:30:05;16.60;99.90
26224;DHT22;14820;48.682;8.890;2023-08-08T08:32:35;16.60;99.90
26224;DHT22;14820;48.682;8.890;2023-08-08T08:35:02;16.60;99.90
26224;DHT22;14820;48.682;8.890;2023-08-08T08:37:30;16.60;99.90
26224;DHT22;14820;48.682;8.890;2023-08-08T08:39:55;16.70;99.90
26224;DHT22;14820;48.682;8.890;2023-08-08T08:42:22;16.60;99.90
26224;DHT22;14820;48.682;8.890;2023-08-08T08:44:49;16.70;99.90
26224;DHT22;14820;48.682;8.890;2023-08-08T08:47:17;16.70;99.90
26224;DHT22;14820;48.682;8.890;2023-08-08T08:49:45;17.00;99.90
26224;DHT22;14820;48.682;8.890;2023-08-08T08:52:11;17.10;99.90
26224;DHT22;14820;48.682;8.890;2023-08-08T08:54:37;17.20;99.90
26224;DHT22;14820;48.682;8.890;2023-08-08T08:57:03;17.20;99.90
26224;DHT22;14820;48.682;8.890;2023-08-08T08:59:29;17.30;99.90
26224;DHT22;14820;48.682;8.890;2023-08-08T09:01:55;17.30;99.90
26224;DHT22;14820;48.682;8.890;2023-08-08T09:04:22;17.20;99.90
26224;DHT22;14820;48.682;8.890;2023-08-08T09:06:48;17.20;99.90
26224;DHT22;14820;48.682;8.890;2023-08-08T09:09:15;17.20;99.90
26224;DHT22;14820;48.682;8.890;2023-08-08T09:11:53;17.20;99.90
26224;DHT22;14820;48.682;8.890;2023-08-08T09:14:24;17.20;99.90
26224;DHT22;14820;48.682;8.890;2023-08-08T09:16:52;17.20;99.90
26224;DHT22;14820;48.682;8.890;2023-08-08T09:19:23;17.20;99.90
26224;DHT22;14820;48.682;8.890;2023-08-08T09:21:50;17.30;99.90
26224;DHT22;14820;48.682;8.890;2023-08-08T09:24:16;17.40;99.90
26224;DHT22;14820;48.682;8.890;2023-08-08T09:26:44;17.50;99.90
26224;DHT22;14820;48.682;8.890;2023-08-08T09:29:11;17.50;99.90
26224;DHT22;14820;48.682;8.890;2023-08-08T09:31:39;17.60;99.90
26224;DHT22;14820;48.682;8.890;2023-08-08T09:34:05;17.70;99.90
26224;DHT22;14820;48.682;8.890;2023-08-08T09:36:31;17.70;99.90
26224;DHT22;14820;48.682;8.890;2023-08-08T09:38:57;17.70;99.90
26224;DHT22;14820;48.682;8.890;2023-08-08T09:41:23;17.70;99.90
26224;DHT22;14820;48.682;8.890;2023-08-08T09:43:53;17.80;99.90
26224;DHT22;14820;48.682;8.890;2023-08-08T09:46:20;17.70;99.90
26224;DHT22;14820;48.682;8.890;2023-08-08T09:48:46;17.80;99.90
26224;DHT22;14820;48.682;8.890;2023-08-08T09:51:12;17.90;99.90
26224;DHT22;14820;48.682;8.890;2023-08-08T09:53:39;17.90;99.90
26224;DHT22;14820;48.682;8.890;2023-08-08T09:56:06;17.90;99.90
26224;DHT22;14820;48.682;8.890;2023-08-08T09:58:33;17.90;99.90
26224;DHT22;14820;48.682;8.890;2023-08-08T10:00:59;18.00;99.90
26224;DHT22;14820;48.682;8.890;2023-08-08T10:03:25;18.20;99.90
26224;DHT22;14820;48.682;8.890;2023-08-08T10:05:52;18.40;99.90
26224;DHT22;14820;48.682;8.890;2023-08-08T10:08:18;18.20;99.90
26224;DHT22;14820;48.682;8.890;2023-08-08T10:10:46;18.20;99.90
26224;DHT22;14820;48.682;8.890;2023-08-08T10:13:26;18.20;99.90
26224;DHT22;14820;48.682;8.890;2023-08-08T10:15:53;18.30;99.90
26224;DHT22;14820;48.682;8.890;2023-08-08T10:18:21;18.30;99.90
26224;DHT22;14820;48.682;8.890;2023-08-08T10:20:48;18.30;99.90
26224;DHT22;14820;48.682;8.890;2023-08-08T10:23:15;18.20;99.90
26224;DHT22;14820;48.682;8.890;2023-08-08T10:25:50;18.20;99.90
26224;DHT22;14820;48.682;8.890;2023-08-08T10:28:18;18.30;99.90
26224;DHT22;14820;48.682;8.890;2023-08-08T10:30:58;18.30;99.90
26224;DHT22;14820;48.682;8.890;2023-08-08T10:36:03;18.50;99.90
26224;DHT22;14820;48.682;8.890;2023-08-08T10:38:46;18.50;99.90
26224;DHT22;14820;48.682;8.890;2023-08-08T10:41:18;18.60;99.90
26224;DHT22;14820;48.682;8.890;2023-08-08T10:43:55;18.70;99.90
26224;DHT22;14820;48.682;8.890;2023-08-08T10:46:30;18.80;99.90
26224;DHT22;14820;48.682;8.890;2023-08-08T10:48:58;18.90;99.90
26224;DHT22;14820;48.682;8.890;2023-08-08T10:51:51;19.00;99.90
26224;DHT22;14820;48.682;8.890;2023-08-08T10:54:26;19.20;99.90
26224;DHT22;14820;48.682;8.890;2023-08-08T10:56:55;19.30;99.90
26224;DHT22;14820;48.682;8.890;2023-08-08T10:59:41;19.30;99.90
26224;DHT22;14820;48.682;8.890;2023-08-08T11:02:07;19.40;99.90
26224;DHT22;14820;48.682;8.890;2023-08-08T11:04:33;19.50;99.90
26224;DHT22;14820;48.682;8.890;2023-08-08T11:07:01;19.60;99.90
26224;DHT22;14820;48.682;8.890;2023-08-08T11:09:27;19.60;99.90
26224;DHT22;14820;48.682;8.890;2023-08-08T11:11:53;19.70;99.90
26224;DHT22;14820;48.682;8.890;2023-08-08T11:14:20;19.80;99.90
26224;DHT22;14820;48.682;8.890;2023-08-08T11:16:48;19.90;99.90
26224;DHT22;14820;48.682;8.890;2023-08-08T11:19:14;19.90;99.90
26224;DHT22;14820;48.682;8.890;2023-08-08T11:21:43;20.00;99.90
26224;DHT22;14820;48.682;8.890;2023-08-08T11:24:09;20.10;99.90
26224;DHT22;14820;48.682;8.890;2023-08-08T11:26:36;20.10;99.90
26224;DHT22;14820;48.682;8.890;2023-08-08T11:29:04;20.20;99.90
26224;DHT22;14820;48.682;8.890;2023-08-08T11:31:31;20.00;99.90
26224;DHT22;14820;48.682;8.890;2023-08-08T11:33:58;20.00;99.90
26224;DHT22;14820;48.682;8.890;2023-08-08T11:36:26;20.10;99.90
26224;DHT22;14820;48.682;8.890;2023-08-08T11:38:54;20.00;99.90
26224;DHT22;14820;48.682;8.890;2023-08-08T11:41:22;20.00;99.90
26224;DHT22;14820;48.682;8.890;2023-08-08T11:43:50;20.00;99.90
26224;DHT22;14820;48.682;8.890;2023-08-08T11:46:16;19.90;99.90
26224;DHT22;14820;48.682;8.890;2023-08-08T11:48:43;20.00;99.90
26224;DHT22;14820;48.682;8.890;2023-08-08T11:51:13;20.00;99.90
26224;DHT22;14820;48.682;8.890;2023-08-08T11:53:48;19.90;99.90
26224;DHT22;14820;48.682;8.890;2023-08-08T11:56:16;19.80;99.90
26224;DHT22;14820;48.682;8.890;2023-08-08T11:58:42;19.90;99.90
26224;DHT22;14820;48.682;8.890;2023-08-08T12:01:09;20.00;99.90
26224;DHT22;14820;48.682;8.890;2023-08-08T12:03:35;20.20;99.90
26224;DHT22;14820;48.682;8.890;2023-08-08T12:06:13;20.30;99.90
26224;DHT22;14820;48.682;8.890;2023-08-08T12:08:42;20.40;99.90
26224;DHT22;14820;48.682;8.890;2023-08-08T12:11:09;20.20;99.90
26224;DHT22;14820;48.682;8.890;2023-08-08T12:13:37;20.20;99.90
26224;DHT22;14820;48.682;8.890;2023-08-08T12:16:05;20.40;99.90
26224;DHT22;14820;48.682;8.890;2023-08-08T12:18:32;20.50;99.90
26224;DHT22;14820;48.682;8.890;2023-08-08T12:20:58;20.40;99.90
26224;DHT22;14820;48.682;8.890;2023-08-08T12:23:25;20.50;99.90
26224;DHT22;14820;48.682;8.890;2023-08-08T12:25:52;20.50;99.90
26224;DHT22;14820;48.682;8.890;2023-08-08T12:28:18;20.50;99.90
26224;DHT22;14820;48.682;8.890;2023-08-08T12:30:44;20.60;99.90
26224;DHT22;14820;48.682;8.890;2023-08-08T12:33:10;20.60;99.90
26224;DHT22;14820;48.682;8.890;2023-08-08T12:35:35;20.40;99.90
26224;DHT22;14820;48.682;8.890;2023-08-08T12:38:01;20.30;99.90
26224;DHT22;14820;48.682;8.890;2023-08-08T12:40:28;20.10;99.90
26224;DHT22;14820;48.682;8.890;2023-08-08T12:42:55;20.00;99.90
26224;DHT22;14820;48.682;8.890;2023-08-08T12:45:20;19.80;99.90
26224;DHT22;14820;48.682;8.890;2023-08-08T12:47:46;19.80;99.90
26224;DHT22;14820;48.682;8.890;2023-08-08T12:50:12;19.70;99.90
26224;DHT22;14820;48.682;8.890;2023-08-08T12:52:37;19.60;99.90
26224;DHT22;14820;48.682;8.890;2023-08-08T12:55:05;19.60;99.90
26224;DHT22;14820;48.682;8.890;2023-08-08T12:57:31;19.60;99.90
26224;DHT22;14820;48.682;8.890;2023-08-08T12:59:57;19.50;99.90
26224;DHT22;14820;48.682;8.890;2023-08-08T13:02:22;19.60;99.90
26224;DHT22;14820;48.682;8.890;2023-08-08T13:04:48;19.70;99.90
26224;DHT22;14820;48.682;8.890;2023-08-08T13:07:14;19.90;99.90
26224;DHT22;14820;48.682;8.890;2023-08-08T13:09:39;20.00;99.90
26224;DHT22;14820;48.682;8.890;2023-08-08T13:12:05;20.00;99.90
26224;DHT22;14820;48.682;8.890;2023-08-08T13:14:31;20.00;99.90
26224;DHT22;14820;48.682;8.890;2023-08-08T13:16:57;20.00;99.90
26224;DHT22;14820;48.682;8.890;2023-08-08T13:19:22;19.90;99.90
26224;DHT22;14820;48.682;8.890;2023-08-08T13:21:51;19.90;99.90
26224;DHT22;14820;48.682;8.890;2023-08-08T13:24:20;19.80;99.90
26224;DHT22;14820;48.682;8.890;2023-08-08T13:26:49;19.90;99.90
26224;DHT22;14820;48.682;8.890;2023-08-08T13:29:15;19.90;99.90
26224;DHT22;14820;48.682;8.890;2023-08-08T13:31:41;19.90;99.90
26224;DHT22;14820;48.682;8.890;2023-08-08T13:34:06;19.90;99.90
26224;DHT22;14820;48.682;8.890;2023-08-08T13:36:32;19.80;99.90
26224;DHT22;14820;48.682;8.890;2023-08-08T13:38:58;19.80;99.90
26224;DHT22;14820;48.682;8.890;2023-08-08T13:41:24;19.80;99.90
26224;DHT22;14820;48.682;8.890;2023-08-08T13:43:50;19.80;99.90
26224;DHT22;14820;48.682;8.890;2023-08-08T13:46:15;19.80;99.90
26224;DHT22;14820;48.682;8.890;2023-08-08T13:48:41;19.80;99.90
26224;DHT22;14820;48.682;8.890;2023-08-08T13:51:07;19.80;99.90
26224;DHT22;14820;48.682;8.890;2023-08-08T13:53:33;19.90;99.90
26224;DHT22;14820;48.682;8.890;2023-08-08T13:56:00;19.80;99.90
26224;DHT22;14820;48.682;8.890;2023-08-08T13:58:25;19.90;99.90
26224;DHT22;14820;48.682;8.890;2023-08-08T14:00:51;19.90;99.90
26224;DHT22;14820;48.682;8.890;2023-08-08T14:03:18;19.80;99.90
26224;DHT22;14820;48.682;8.890;2023-08-08T14:05:44;19.70;99.90
26224;DHT22;14820;48.682;8.890;2023-08-08T14:08:10;19.50;99.90
26224;DHT22;14820;48.682;8.890;2023-08-08T14:10:36;19.50;99.90
26224;DHT22;14820;48.682;8.890;2023-08-08T14:13:02;19.50;99.90
26224;DHT22;14820;48.682;8.890;2023-08-08T14:15:28;19.50;99.90
26224;DHT22;14820;48.682;8.890;2023-08-08T14:17:55;19.50;99.90
26224;DHT22;14820;48.682;8.890;2023-08-08T14:20:20;19.40;99.90
26224;DHT22;14820;48.682;8.890;2023-08-08T14:22:46;19.40;99.90
26224;DHT22;14820;48.682;8.890;2023-08-08T14:25:13;19.40;99.90
26224;DHT22;14820;48.682;8.890;2023-08-08T14:27:39;19.50;99.90
26224;DHT22;14820;48.682;8.890;2023-08-08T14:30:05;19.50;99.90
26224;DHT22;14820;48.682;8.890;2023-08-08T14:32:31;19.60;99.90
26224;DHT22;14820;48.682;8.890;2023-08-08T14:34:56;19.60;99.90
26224;DHT22;14820;48.682;8.890;2023-08-08T14:37:22;19.60;99.90
26224;DHT22;14820;48.682;8.890;2023-08-08T14:39:48;19.50;99.90
26224;DHT22;14820;48.682;8.890;2023-08-08T14:42:13;19.50;99.90
26224;DHT22;14820;48.682;8.890;2023-08-08T14:44:39;19.40;99.90
26224;DHT22;14820;48.682;8.890;2023-08-08T14:47:05;19.30;99.90
26224;DHT22;14820;48.682;8.890;2023-08-08T14:49:31;19.20;99.90
26224;DHT22;14820;48.682;8.890;2023-08-08T14:51:57;19.20;99.90
26224;DHT22;14820;48.682;8.890;2023-08-08T14:54:23;19.10;99.90
26224;DHT22;14820;48.682;8.890;2023-08-08T14:56:49;19.20;99.90
26224;DHT22;14820;48.682;8.890;2023-08-08T14:59:14;19.40;99.90
26224;DHT22;14820;48.682;8.890;2023-08-08T15:01:40;19.50;99.90
26224;DHT22;14820;48.682;8.890;2023-08-08T15:04:06;19.50;99.90
26224;DHT22;14820;48.682;8.890;2023-08-08T15:06:31;19.50;99.90
26224;DHT22;14820;48.682;8.890;2023-08-08T15:08:57;19.60;99.90
26224;DHT22;14820;48.682;8.890;2023-08-08T15:11:23;19.60;99.90
26224;DHT22;14820;48.682;8.890;2023-08-08T15:13:49;19.70;99.90
26224;DHT22;14820;48.682;8.890;2023-08-08T15:16:14;19.80;99.90
26224;DHT22;14820;48.682;8.890;2023-08-08T15:18:40;19.80;99.90
26224;DHT22;14820;48.682;8.890;2023-08-08T15:21:06;19.70;99.90
26224;DHT22;14820;48.682;8.890;2023-08-08T15:23:32;19.70;99.90
26224;DHT22;14820;48.682;8.890;2023-08-08T15:26:01;19.50;99.90
26224;DHT22;14820;48.682;8.890;2023-08-08T15:28:27;19.50;99.90
26224;DHT22;14820;48.682;8.890;2023-08-08T15:30:52;19.40;99.90
26224;DHT22;14820;48.682;8.890;2023-08-08T15:33:18;19.40;99.90
26224;DHT22;14820;48.682;8.890;2023-08-08T15:35:44;19.30;99.90